Time;durP1;ratioP1;P1;durP2;ratioP2;P2;SDS_P1;SDS_P2;PMS_P1;PMS_P2;Temp;Humidity;BMP_temperature;BMP_pressure;BME280_temperature;BME280_humidity;BME280_pressure;Samples;Min_cycle;Max_cycle;Signal;HPM_P1;HPM_P2
2023/03/07 00:01:57;;;;;;;25.25;10.65;;;;;;;5.61;57.47;99024.72;12931999;23;20527;-67
2023/03/07 00:06:59;;;;;;;23.38;10.30;;;;;;;5.60;57.68;99017.72;12930252;23;20020;-68
2023/03/07 00:12:00;;;;;;;23.08;11.05;;;;;;;5.61;57.97;99011.38;12925198;22;20459;-67
2023/03/07 00:17:01;;;;;;;21.33;10.18;;;;;;;5.48;58.24;99008.47;12932917;23;20024;-66
2023/03/07 00:22:03;;;;;;;22.60;10.70;;;;;;;5.55;58.43;99010.25;12926763;23;20060;-66
2023/03/07 00:27:05;;;;;;;22.80;10.52;;;;;;;5.40;58.96;99006.69;12934887;23;20031;-66
2023/03/07 00:32:06;;;;;;;28.50;12.73;;;;;;;5.32;59.41;98999.56;12922862;23;20024;-66
2023/03/07 00:37:08;;;;;;;33.30;12.68;;;;;;;5.26;60.01;98986.13;12897893;23;20452;-67
2023/03/07 00:42:09;;;;;;;34.95;14.13;;;;;;;5.20;60.15;98990.31;12922474;23;20021;-66
2023/03/07 00:47:11;;;;;;;33.15;13.82;;;;;;;5.09;60.66;98977.38;12916545;23;20020;-65
2023/03/07 00:52:12;;;;;;;32.08;13.88;;;;;;;5.04;61.01;98975.25;12913788;23;20024;-66
2023/03/07 00:57:13;;;;;;;33.85;14.48;;;;;;;4.93;61.78;98957.81;12915298;23;20028;-66
2023/03/07 01:02:15;;;;;;;34.75;15.20;;;;;;;4.83;62.56;98965.19;12913428;23;20357;-67
2023/03/07 01:07:16;;;;;;;34.78;15.05;;;;;;;4.79;63.23;98947.09;12902119;23;20016;-66
2023/03/07 01:12:18;;;;;;;37.22;14.73;;;;;;;4.81;62.84;98935.25;12894705;23;20027;-65
2023/03/07 01:17:19;;;;;;;37.63;15.35;;;;;;;4.70;63.34;98931.16;12912710;23;20024;-65
2023/03/07 01:22:20;;;;;;;38.45;15.32;;;;;;;4.64;63.77;98926.53;12885364;23;20012;-63
2023/03/07 01:27:22;;;;;;;37.45;15.40;;;;;;;4.63;64.20;98929.38;12912506;23;20035;-63
2023/03/07 01:32:24;;;;;;;43.38;17.77;;;;;;;4.56;64.66;98927.41;12912990;23;20024;-65
2023/03/07 01:37:25;;;;;;;44.42;17.70;;;;;;;4.51;64.78;98919.09;12886472;23;20024;-63
2023/03/07 01:42:30;;;;;;;43.28;18.10;;;;;;;4.51;65.16;98924.41;12921102;23;20028;-65
2023/03/07 01:47:31;;;;;;;47.55;17.25;;;;;;;4.48;65.43;98916.78;12923129;23;20024;-66
2023/03/07 01:52:40;;;;;;;41.97;16.98;;;;;;;4.49;65.58;98915.78;12920883;23;20016;-64
2023/03/07 01:57:44;;;;;;;39.75;17.13;;;;;;;4.49;66.00;98907.78;12920574;23;20028;-65
2023/03/07 02:02:52;;;;;;;42.55;17.88;;;;;;;4.48;66.21;98908.81;12923702;23;20349;-66
2023/03/07 02:07:55;;;;;;;;;;;;;;;4.46;66.14;98901.97;12920205;23;20020;-66
2023/03/07 02:12:57;;;;;;;39.15;16.75;;;;;;;4.61;66.39;98888.78;12919632;22;19919;-66
2023/03/07 02:17:58;;;;;;;40.80;16.20;;;;;;;4.64;65.66;98878.63;12923684;23;20028;-66
2023/03/07 02:23:00;;;;;;;44.75;18.48;;;;;;;4.62;66.24;98879.78;12928413;23;20404;-67
2023/03/07 02:28:03;;;;;;;44.13;18.30;;;;;;;4.56;66.39;98871.50;12926911;23;20023;-66
2023/03/07 02:33:04;;;;;;;40.42;17.85;;;;;;;4.61;66.57;98867.50;12914801;23;20024;-64
2023/03/07 02:38:06;;;;;;;40.65;17.40;;;;;;;4.61;66.96;98849.69;12909806;23;20025;-63
2023/03/07 02:43:08;;;;;;;40.63;17.90;;;;;;;4.65;67.08;98852.84;12880395;23;20050;-64
2023/03/07 02:48:10;;;;;;;39.22;16.73;;;;;;;4.64;67.29;98848.50;12911969;23;20449;-63
2023/03/07 02:53:11;;;;;;;42.00;17.60;;;;;;;4.67;67.12;98842.84;12920613;23;20023;-63
2023/03/07 02:58:12;;;;;;;38.60;17.27;;;;;;;4.67;67.48;98832.19;12914611;23;20020;-62
2023/03/07 03:03:14;;;;;;;40.97;17.60;;;;;;;4.72;67.84;98829.81;12885278;23;20338;-62
2023/03/07 03:08:15;;;;;;;37.95;15.73;;;;;;;4.70;67.71;98811.38;12921047;23;20032;-63
2023/03/07 03:13:16;;;;;;;37.47;16.05;;;;;;;4.75;67.57;98822.31;12918762;22;20353;-63
2023/03/07 03:18:18;;;;;;;46.63;17.77;;;;;;;4.71;68.08;98812.22;12928072;23;20050;-62
2023/03/07 03:23:19;;;;;;;39.70;18.02;;;;;;;4.76;68.06;98828.50;12917630;23;20020;-62
2023/03/07 03:28:21;;;;;;;36.10;15.95;;;;;;;4.80;68.19;98805.84;12918261;23;20526;-63
2023/03/07 03:33:23;;;;;;;34.50;13.95;;;;;;;4.84;67.92;98809.81;12883916;23;20064;-62
2023/03/07 03:38:25;;;;;;;30.23;14.07;;;;;;;4.77;68.74;98803.50;12910607;23;20027;-64
2023/03/07 03:43:27;;;;;;;33.15;13.95;;;;;;;4.77;68.82;98806.19;12912595;23;20024;-63
2023/03/07 03:48:28;;;;;;;28.63;13.07;;;;;;;4.85;68.52;98808.78;12912853;23;20077;-63
2023/03/07 03:53:32;;;;;;;30.00;13.45;;;;;;;4.84;68.78;98799.16;12886260;23;20027;-62
2023/03/07 03:58:34;;;;;;;21.27;10.45;;;;;;;4.84;69.12;98793.81;12910122;23;20020;-63
2023/03/07 04:03:42;;;;;;;25.45;10.88;;;;;;;4.83;69.44;98784.16;12919642;23;20020;-64
2023/03/07 04:08:45;;;;;;;25.85;11.50;;;;;;;4.86;69.64;98775.00;12919879;22;20027;-66
2023/03/07 04:13:46;;;;;;;24.30;10.90;;;;;;;4.84;69.29;98775.19;12929547;23;20020;-63
2023/03/07 04:18:49;;;;;;;24.27;11.63;;;;;;;4.85;69.46;98763.53;12933741;23;20020;-65
2023/03/07 04:23:54;;;;;;;19.15;10.50;;;;;;;4.80;69.79;98773.03;12934617;23;20024;-64
2023/03/07 04:28:55;;;;;;;22.63;10.75;;;;;;;4.86;69.59;98770.53;12935922;23;20340;-64
2023/03/07 04:33:57;;;;;;;24.75;11.20;;;;;;;4.94;69.37;98770.44;12936762;23;20672;-65
2023/03/07 04:38:58;;;;;;;22.75;10.32;;;;;;;4.90;69.83;98758.50;12930198;23;20093;-65
2023/03/07 04:44:00;;;;;;;20.90;9.25;;;;;;;4.96;69.16;98747.13;12933604;23;20027;-67
2023/03/07 04:49:01;;;;;;;20.83;10.07;;;;;;;4.97;69.55;98740.78;12944030;23;20020;-66
2023/03/07 04:54:03;;;;;;;24.70;11.30;;;;;;;5.01;69.59;98748.44;12950993;23;20034;-66
2023/03/07 04:59:04;;;;;;;22.02;10.57;;;;;;;5.01;69.56;98741.25;12926612;23;20024;-66
2023/03/07 05:04:05;;;;;;;20.63;9.90;;;;;;;5.06;69.75;98736.22;12926337;23;20015;-66
2023/03/07 05:09:07;;;;;;;24.38;11.55;;;;;;;5.07;69.46;98723.72;12926113;22;20039;-65
2023/03/07 05:14:08;;;;;;;23.27;10.75;;;;;;;5.10;69.25;98723.38;12922043;23;20024;-64
2023/03/07 05:19:09;;;;;;;24.63;10.38;;;;;;;5.17;69.08;98713.63;12922671;23;20020;-65
2023/03/07 05:24:11;;;;;;;22.38;11.75;;;;;;;5.15;69.35;98708.53;12925917;23;20093;-63
2023/03/07 05:29:12;;;;;;;24.30;11.70;;;;;;;5.21;69.38;98704.28;12914825;23;20461;-64
2023/03/07 05:34:14;;;;;;;27.55;12.40;;;;;;;5.25;69.29;98705.59;12906981;23;20074;-67
2023/03/07 05:39:16;;;;;;;26.42;12.63;;;;;;;5.22;69.70;98703.28;12906778;23;20109;-68
2023/03/07 05:44:18;;;;;;;27.20;12.57;;;;;;;5.23;69.12;98702.25;12879566;23;20020;-67
2023/03/07 05:49:20;;;;;;;26.10;13.00;;;;;;;5.20;69.56;98696.50;12908940;23;20414;-69
2023/03/07 05:54:21;;;;;;;26.58;13.48;;;;;;;5.15;69.97;98708.53;12854542;23;20078;-68
2023/03/07 05:59:22;;;;;;;23.85;12.15;;;;;;;5.18;69.60;98694.00;12900914;23;20030;-66
2023/03/07 06:04:24;;;;;;;26.85;12.82;;;;;;;5.28;68.75;98686.56;12903582;23;20031;-66
2023/03/07 06:09:26;;;;;;;25.02;11.50;;;;;;;5.31;68.84;98688.03;12902126;22;20051;-66
2023/03/07 06:14:30;;;;;;;28.60;13.85;;;;;;;5.33;69.32;98686.00;12900424;23;20344;-67
2023/03/07 06:19:32;;;;;;;24.30;12.45;;;;;;;5.41;68.94;98695.75;12902378;23;20089;-66
2023/03/07 06:24:34;;;;;;;29.02;11.52;;;;;;;5.51;68.35;98702.47;12902042;23;20465;-65
2023/03/07 06:29:35;;;;;;;27.95;12.55;;;;;;;5.62;68.03;98706.50;12906706;23;20028;-66
2023/03/07 06:34:37;;;;;;;22.50;12.70;;;;;;;5.58;68.48;98691.88;12906253;23;20443;-67
2023/03/07 06:39:38;;;;;;;20.80;11.20;;;;;;;5.65;67.88;98692.81;12904259;23;20150;-66
2023/03/07 06:44:40;;;;;;;26.95;11.98;;;;;;;5.67;67.41;98706.78;12891076;23;20028;-66
2023/03/07 06:49:44;;;;;;;21.30;11.27;;;;;;;5.69;67.66;98702.09;12877456;23;20043;-66
2023/03/07 06:54:45;;;;;;;22.70;11.45;;;;;;;5.65;67.85;98698.16;12906216;23;20047;-67
2023/03/07 06:59:47;;;;;;;23.95;11.48;;;;;;;5.69;67.38;98693.28;12877774;23;20480;-61
2023/03/07 07:04:48;;;;;;;21.85;11.13;;;;;;;5.76;67.57;98692.31;12913709;23;20020;-62
2023/03/07 07:09:50;;;;;;;23.13;11.57;;;;;;;5.71;67.63;98692.06;12912087;22;20082;-62
2023/03/07 07:14:51;;;;;;;20.83;10.10;;;;;;;5.76;67.07;98688.84;12888478;23;20020;-63
2023/03/07 07:19:53;;;;;;;26.33;11.40;;;;;;;5.81;66.89;98682.97;12911194;23;20074;-63
2023/03/07 07:24:54;;;;;;;20.70;10.60;;;;;;;5.80;67.15;98682.13;12920458;23;20032;-63
2023/03/07 07:29:55;;;;;;;23.75;11.07;;;;;;;5.79;67.23;98679.66;12907549;23;20506;-63
2023/03/07 07:34:57;;;;;;;22.75;11.35;;;;;;;5.88;66.60;98678.53;12874222;23;20052;-64
2023/03/07 07:39:58;;;;;;;23.30;10.50;;;;;;;5.94;66.10;98678.63;12900716;23;20369;-64
2023/03/07 07:45:00;;;;;;;22.45;10.13;;;;;;;5.98;66.61;98679.06;12899769;23;20030;-65
2023/03/07 07:50:01;;;;;;;21.00;9.63;;;;;;;6.03;66.72;98679.34;12899516;23;20028;-65
2023/03/07 07:55:03;;;;;;;20.80;10.40;;;;;;;6.06;66.35;98675.47;12875156;23;20020;-65
2023/03/07 08:00:05;;;;;;;21.67;9.52;;;;;;;6.10;65.79;98684.75;12899060;23;20031;-66
2023/03/07 08:05:11;;;;;;;18.85;9.75;;;;;;;6.16;65.75;98692.00;12901460;23;20020;-65
2023/03/07 08:10:14;;;;;;;21.35;11.13;;;;;;;6.19;65.28;98674.81;12900148;22;20016;-66
2023/03/07 08:15:18;;;;;;;20.25;9.20;;;;;;;6.28;65.71;98668.31;12911721;23;20024;-66
2023/03/07 08:20:22;;;;;;;21.25;9.98;;;;;;;6.31;65.11;98658.09;12902643;23;20151;-66
2023/03/07 08:25:24;;;;;;;18.33;10.32;;;;;;;6.45;64.15;98658.22;12901196;23;20060;-65
2023/03/07 08:30:28;;;;;;;17.92;9.98;;;;;;;6.54;64.87;98673.91;12911365;23;20032;-66
2023/03/07 08:35:30;;;;;;;18.98;9.60;;;;;;;6.58;64.29;98654.84;12901853;23;20031;-66
2023/03/07 08:40:32;;;;;;;23.90;10.60;;;;;;;6.73;63.95;98644.91;12899296;23;20122;-68
2023/03/07 08:45:34;;;;;;;18.80;9.38;;;;;;;6.81;63.96;98644.75;12902200;23;20514;-67
2023/03/07 08:50:37;;;;;;;20.65;9.10;;;;;;;6.95;62.93;98634.97;12898242;23;20047;-68
2023/03/07 08:55:39;;;;;;;17.58;8.93;;;;;;;7.18;62.71;98633.91;12899392;23;20069;-68
2023/03/07 09:00:40;;;;;;;16.55;8.77;;;;;;;7.41;62.56;98633.63;12896335;23;20082;-68
2023/03/07 09:05:41;;;;;;;16.02;8.48;;;;;;;7.56;62.44;98636.97;12900968;23;20028;-67
2023/03/07 09:10:43;;;;;;;16.17;7.85;;;;;;;7.74;62.17;98633.75;12900635;22;20027;-67
2023/03/07 09:15:44;;;;;;;15.45;7.82;;;;;;;7.86;60.94;98625.97;12876996;23;20162;-66
2023/03/07 09:20:46;;;;;;;17.33;8.25;;;;;;;7.99;60.26;98634.06;12904211;23;20484;-66
2023/03/07 09:25:47;;;;;;;17.00;7.95;;;;;;;8.08;60.69;98630.16;12903378;23;20074;-65
2023/03/07 09:30:48;;;;;;;17.83;7.13;;;;;;;8.14;59.88;98636.56;12903974;23;20027;-67
2023/03/07 09:35:50;;;;;;;13.60;7.60;;;;;;;8.47;58.98;98625.09;12902979;23;20074;-65
2023/03/07 09:40:51;;;;;;;17.05;7.57;;;;;;;8.57;58.87;98624.69;12901375;23;20016;-65
2023/03/07 09:46:11;;;;;;;12.63;6.30;;;;;;;8.63;57.84;98621.19;12901837;23;20085;-67
2023/03/07 09:51:49;;;;;;;13.93;6.25;;;;;;;8.55;57.03;98606.16;12903482;23;20077;-67
2023/03/07 09:56:54;;;;;;;11.35;6.60;;;;;;;8.84;56.88;98609.44;12867301;23;20036;-67
2023/03/07 10:02:16;;;;;;;11.60;5.18;;;;;;;8.74;55.90;98599.97;12905301;23;20119;-67
2023/03/07 10:07:22;;;;;;;11.98;5.82;;;;;;;8.80;55.37;98595.63;12874262;23;20461;-67
2023/03/07 10:12:54;;;;;;;9.68;5.47;;;;;;;8.85;55.17;98592.34;12901464;22;20020;-67
2023/03/07 10:18:11;;;;;;;10.27;5.78;;;;;;;8.97;54.97;98584.50;12900755;23;20048;-66
2023/03/07 10:23:31;;;;;;;12.20;5.40;;;;;;;9.07;54.89;98587.56;12874873;23;20094;-67
2023/03/07 10:28:36;;;;;;;11.82;5.85;;;;;;;9.25;54.21;98584.22;12900898;23;20024;-66
2023/03/07 10:33:39;;;;;;;9.80;5.85;;;;;;;9.22;53.64;98574.75;12884838;23;20020;-67
2023/03/07 10:39:05;;;;;;;10.77;6.07;;;;;;;9.23;53.23;98576.38;12905135;23;20655;-68
2023/03/07 10:44:16;;;;;;;10.77;5.05;;;;;;;9.22;52.90;98595.34;12905206;23;20031;-68
2023/03/07 10:49:23;;;;;;;11.88;5.65;;;;;;;9.31;52.34;98580.69;12904742;23;20020;-68
2023/03/07 10:54:37;;;;;;;11.00;5.53;;;;;;;9.41;52.73;98573.00;12889252;23;20070;-68
2023/03/07 10:59:44;;;;;;;10.90;5.05;;;;;;;9.39;51.85;98560.84;12894454;23;20020;-69
2023/03/07 11:04:45;;;;;;;7.80;4.40;;;;;;;9.42;51.69;98566.63;12905780;23;20332;-68
2023/03/07 11:09:47;;;;;;;7.07;3.72;;;;;;;9.63;51.10;98556.59;12904379;22;20028;-65
2023/03/07 11:14:51;;;;;;;10.57;5.43;;;;;;;9.88;50.89;98557.50;12915932;23;20031;-66
2023/03/07 11:19:56;;;;;;;10.35;4.18;;;;;;;10.12;50.24;98547.03;12903572;23;20054;-66
2023/03/07 11:25:12;;;;;;;10.18;4.57;;;;;;;10.09;49.86;98542.06;12904585;23;20024;-66
2023/03/07 11:30:20;;;;;;;8.50;4.38;;;;;;;10.00;49.63;98538.84;12903578;23;20035;-66
2023/03/07 11:35:51;;;;;;;16.25;5.68;;;;;;;10.01;49.29;98524.41;12903978;23;20021;-67
2023/03/07 11:41:06;;;;;;;9.70;4.53;;;;;;;10.05;49.20;98528.28;12868994;23;20024;-67
2023/03/07 11:46:23;;;;;;;7.93;4.45;;;;;;;9.92;48.70;98521.13;12902603;23;20069;-67
2023/03/07 11:51:52;;;;;;;7.73;3.87;;;;;;;9.86;48.43;98516.63;12905230;23;20311;-68
2023/03/07 11:57:05;;;;;;;9.43;3.90;;;;;;;9.73;48.59;98514.03;12904104;23;20036;-67
2023/03/07 12:02:45;;;;;;;7.60;3.42;;;;;;;9.73;48.08;98525.59;12906513;23;20027;-67
2023/03/07 12:08:11;;;;;;;8.13;5.22;;;;;;;9.75;48.04;98508.47;12903457;23;20082;-67
2023/03/07 12:13:42;;;;;;;5.75;3.00;;;;;;;9.68;48.14;98508.50;12903822;22;20016;-68
2023/03/07 12:18:54;;;;;;;5.82;3.58;;;;;;;9.82;47.91;98502.00;12902129;23;20039;-69
2023/03/07 12:24:02;;;;;;;6.03;3.60;;;;;;;9.84;47.88;98494.56;12904671;23;20023;-68
2023/03/07 12:29:19;;;;;;;8.52;4.72;;;;;;;9.81;47.66;98494.16;12904158;23;20059;-70
2023/03/07 12:34:44;;;;;;;7.28;4.63;;;;;;;9.93;47.61;98489.75;12903230;23;20099;-69
2023/03/07 12:40:09;;;;;;;6.53;4.13;;;;;;;10.06;47.60;98481.59;12907211;23;20453;-68
2023/03/07 12:45:22;;;;;;;6.90;3.60;;;;;;;9.99;47.43;98483.53;12904644;23;20030;-69
2023/03/07 12:50:40;;;;;;;7.78;4.32;;;;;;;9.93;47.68;98460.22;12904172;23;20023;-68
2023/03/07 12:55:49;;;;;;;7.10;3.80;;;;;;;10.01;47.51;98470.72;12903059;23;20019;-69
2023/03/07 13:00:58;;;;;;;12.07;4.28;;;;;;;9.94;47.40;98469.94;12903314;23;20705;-69
2023/03/07 13:06:00;;;;;;;6.63;3.40;;;;;;;10.08;47.49;98460.72;12877107;23;20107;-67
2023/03/07 13:11:02;;;;;;;8.68;3.17;;;;;;;10.18;46.93;98451.34;12876149;22;20034;-69
2023/03/07 13:16:04;;;;;;;5.80;2.97;;;;;;;10.35;46.77;98447.09;12876665;23;20024;-69
2023/03/07 13:21:07;;;;;;;9.73;3.60;;;;;;;10.35;46.82;98449.78;12900895;23;20530;-69
2023/03/07 13:26:10;;;;;;;6.00;3.22;;;;;;;10.28;46.67;98448.97;12901202;23;20020;-69
2023/03/07 13:31:28;;;;;;;7.22;3.60;;;;;;;10.23;46.86;98438.06;12902635;23;20024;-67
2023/03/07 13:36:37;;;;;;;7.25;3.45;;;;;;;10.36;46.86;98446.03;12902276;23;20524;-69
2023/03/07 13:41:45;;;;;;;5.95;3.60;;;;;;;10.37;46.95;98454.91;12902830;23;20028;-69
2023/03/07 13:46:47;;;;;;;9.27;4.05;;;;;;;10.26;47.13;98454.56;12902164;23;20024;-70
2023/03/07 13:52:34;;;;;;;6.05;3.33;;;;;;;10.10;47.18;98447.91;12903216;23;20031;-69
2023/03/07 13:57:37;;;;;;;6.70;3.75;;;;;;;10.22;47.50;98448.00;12897723;23;20078;-68
2023/03/07 14:02:40;;;;;;;6.05;2.88;;;;;;;10.11;47.60;98444.19;12905705;23;20034;-70
2023/03/07 14:07:50;;;;;;;10.43;3.85;;;;;;;10.17;47.64;98457.75;12878710;23;20020;-69
2023/03/07 14:13:10;;;;;;;5.45;3.30;;;;;;;10.06;48.19;98457.44;12905696;22;20464;-68
2023/03/07 14:18:33;;;;;;;7.35;3.70;;;;;;;10.11;48.11;98454.06;12907542;23;20020;-68
2023/03/07 14:24:08;;;;;;;6.28;3.75;;;;;;;10.08;48.38;98457.22;12903166;23;20028;-69
2023/03/07 14:29:24;;;;;;;6.68;2.83;;;;;;;10.04;48.52;98462.19;12903535;23;20027;-68
2023/03/07 14:34:32;;;;;;;6.55;3.05;;;;;;;9.79;48.71;98467.53;12907443;23;20086;-69
2023/03/07 14:39:52;;;;;;;;;;;;;;;9.83;48.53;98463.38;12904399;23;20078;-67
2023/03/07 14:45:15;;;;;;;7.53;3.60;;;;;;;9.83;48.66;98463.38;12917248;23;19946;-68
2023/03/07 14:50:22;;;;;;;7.53;4.00;;;;;;;9.71;49.04;98482.03;12916819;23;20032;-68
2023/03/07 14:55:34;;;;;;;9.93;3.92;;;;;;;9.63;49.40;98482.31;12889222;23;20020;-67
2023/03/07 15:00:36;;;;;;;8.27;4.90;;;;;;;9.65;49.62;98479.41;12878004;23;20028;-65
2023/03/07 15:05:47;;;;;;;8.85;4.28;;;;;;;9.53;49.93;98476.59;12917532;23;20113;-68
2023/03/07 15:10:56;;;;;;;13.40;5.25;;;;;;;9.43;50.05;98474.38;12902432;22;20027;-68
2023/03/07 15:16:02;;;;;;;8.05;4.40;;;;;;;9.50;50.46;98477.03;12902385;23;20016;-68
2023/03/07 15:21:06;;;;;;;7.00;3.88;;;;;;;9.55;50.37;98476.41;12913636;23;20111;-70
2023/03/07 15:26:19;;;;;;;9.70;3.70;;;;;;;9.50;50.12;98472.50;12899054;23;20051;-65
2023/03/07 15:31:21;;;;;;;8.35;3.63;;;;;;;9.42;50.65;98469.22;12901622;23;20016;-69
2023/03/07 15:36:25;;;;;;;5.32;2.83;;;;;;;9.37;50.92;98461.03;12873461;23;20099;-68
2023/03/07 15:41:36;;;;;;;6.82;3.17;;;;;;;9.45;50.82;98464.25;12899790;23;20028;-69
2023/03/07 15:46:47;;;;;;;6.82;3.13;;;;;;;9.36;50.95;98468.25;12904981;23;20035;-67
2023/03/07 15:51:53;;;;;;;5.40;3.22;;;;;;;9.35;51.20;98461.22;12902158;23;20499;-69
2023/03/07 15:56:58;;;;;;;4.93;2.53;;;;;;;9.43;50.69;98458.28;12898469;23;20032;-68
2023/03/07 16:02:33;;;;;;;6.72;2.20;;;;;;;9.28;51.02;98469.31;12906045;23;20023;-69
2023/03/07 16:07:35;;;;;;;5.53;2.45;;;;;;;9.25;50.93;98474.28;12875802;23;20038;-68
2023/03/07 16:12:44;;;;;;;5.75;2.63;;;;;;;9.24;51.02;98470.78;12873422;23;20071;-68
2023/03/07 16:17:53;;;;;;;5.80;2.53;;;;;;;9.34;50.79;98473.00;12911815;23;20035;-70
2023/03/07 16:22:55;;;;;;;7.55;2.92;;;;;;;9.27;50.42;98482.94;12902549;23;20082;-68
2023/03/07 16:27:58;;;;;;;8.73;3.40;;;;;;;9.21;50.98;98475.75;12902256;23;20082;-68
2023/03/07 16:32:59;;;;;;;6.18;4.05;;;;;;;9.24;50.66;98473.47;12901406;23;20341;-67
2023/03/07 16:38:00;;;;;;;6.50;3.30;;;;;;;9.24;50.54;98483.34;12873370;23;20282;-68
2023/03/07 16:43:02;;;;;;;6.88;3.78;;;;;;;9.12;50.72;98481.34;12901417;23;20023;-68
2023/03/07 16:48:03;;;;;;;5.32;3.40;;;;;;;9.10;51.36;98480.75;12872300;23;20028;-68
2023/03/07 16:53:05;;;;;;;9.57;4.13;;;;;;;9.06;51.18;98473.31;12905008;23;20469;-68
2023/03/07 16:58:18;;;;;;;10.27;3.67;;;;;;;9.08;51.10;98473.94;12877579;23;20259;-69
2023/03/07 17:03:20;;;;;;;9.90;4.50;;;;;;;9.08;50.82;98472.09;12913810;23;20759;-69
2023/03/07 17:08:21;;;;;;;10.30;4.07;;;;;;;9.11;51.50;98478.88;12903477;23;20024;-67
2023/03/07 17:13:23;;;;;;;10.10;4.95;;;;;;;9.10;51.74;98479.91;12877607;23;20016;-67
2023/03/07 17:18:25;;;;;;;11.75;5.45;;;;;;;9.02;51.70;98493.56;12877149;23;20031;-67
2023/03/07 17:23:26;;;;;;;9.50;5.78;;;;;;;9.11;51.47;98497.66;12901983;23;20020;-67
2023/03/07 17:28:28;;;;;;;13.77;6.13;;;;;;;9.08;52.28;98496.22;12898397;23;20031;-67
2023/03/07 17:33:29;;;;;;;13.55;6.55;;;;;;;9.04;51.84;98486.94;12904681;23;20110;-66
2023/03/07 17:38:31;;;;;;;16.17;7.50;;;;;;;8.96;52.21;98494.41;12878456;23;20043;-68
2023/03/07 17:43:32;;;;;;;9.30;4.82;;;;;;;8.85;52.81;98502.06;12879417;23;20376;-67
2023/03/07 17:48:34;;;;;;;12.10;5.75;;;;;;;8.82;52.91;98502.47;12904558;23;20035;-69
2023/03/07 17:53:37;;;;;;;13.10;6.13;;;;;;;8.74;53.30;98508.88;12906904;23;20344;-68
2023/03/07 17:58:38;;;;;;;11.73;6.28;;;;;;;8.73;53.48;98515.28;12882065;23;20020;-69
2023/03/07 18:03:47;;;;;;;9.48;6.03;;;;;;;8.75;53.09;98517.75;12917185;23;20042;-69
2023/03/07 18:08:49;;;;;;;9.80;5.82;;;;;;;8.67;53.76;98523.34;12882297;22;20020;-71
2023/03/07 18:13:50;;;;;;;11.60;6.45;;;;;;;8.59;54.00;98520.84;12878443;23;20051;-71
2023/03/07 18:18:52;;;;;;;11.48;5.57;;;;;;;8.56;53.54;98521.28;12904387;23;20027;-69
2023/03/07 18:24:01;;;;;;;12.13;5.43;;;;;;;8.53;54.14;98520.69;12917258;23;20424;-69
2023/03/07 18:29:03;;;;;;;9.52;5.22;;;;;;;8.54;53.59;98530.34;12905722;23;20024;-71
2023/03/07 18:34:05;;;;;;;10.70;5.43;;;;;;;8.62;53.82;98525.81;12906528;23;20020;-69
2023/03/07 18:39:09;;;;;;;8.95;4.63;;;;;;;8.52;53.96;98531.59;12887775;23;20117;-69
2023/03/07 18:44:11;;;;;;;12.73;6.35;;;;;;;8.54;54.19;98538.38;12884933;23;20027;-69
2023/03/07 18:49:15;;;;;;;9.60;4.93;;;;;;;8.55;53.93;98533.88;12907197;23;20016;-70
2023/03/07 18:54:16;;;;;;;14.25;5.50;;;;;;;8.56;54.16;98540.84;12908359;23;20024;-70
2023/03/07 18:59:18;;;;;;;11.40;6.28;;;;;;;8.64;53.62;98539.81;12897642;23;20402;-69
2023/03/07 19:04:19;;;;;;;9.07;5.65;;;;;;;8.63;53.57;98551.53;12903819;23;20020;-69
2023/03/07 19:09:22;;;;;;;14.75;4.75;;;;;;;8.58;53.12;98543.34;12919565;22;20024;-69
2023/03/07 19:14:25;;;;;;;13.35;6.32;;;;;;;8.46;53.59;98554.66;12881889;23;20078;-67
2023/03/07 19:19:26;;;;;;;13.07;6.18;;;;;;;8.05;55.18;98560.19;12919588;22;20445;-63
2023/03/07 19:24:28;;;;;;;10.18;5.68;;;;;;;7.97;55.44;98571.06;12905848;23;20082;-69
2023/03/07 19:29:29;;;;;;;13.13;6.22;;;;;;;7.96;56.19;98578.28;12902771;23;20095;-66
2023/03/07 19:34:31;;;;;;;11.43;5.25;;;;;;;7.94;55.88;98586.50;12907796;23;20020;-67
2023/03/07 19:39:33;;;;;;;9.70;5.50;;;;;;;7.85;56.26;98600.28;12928701;23;20445;-67
2023/03/07 19:44:34;;;;;;;11.55;5.53;;;;;;;7.84;56.82;98614.66;12908084;23;20019;-67
2023/03/07 19:49:36;;;;;;;16.33;7.20;;;;;;;7.82;57.47;98611.34;12875892;23;20016;-66
2023/03/07 19:54:39;;;;;;;13.75;7.00;;;;;;;7.74;57.42;98637.28;12847537;23;20697;-65
2023/03/07 19:59:40;;;;;;;7.95;4.72;;;;;;;7.47;58.82;98648.88;12875434;23;20023;-66
2023/03/07 20:04:42;;;;;;;4.18;3.38;;;;;;;7.18;60.47;98668.66;12880053;23;20028;-65
2023/03/07 20:09:43;;;;;;;4.35;2.78;;;;;;;6.93;60.18;98672.59;12901253;22;20077;-64
2023/03/07 20:14:45;;;;;;;4.22;3.05;;;;;;;6.81;61.19;98673.31;12876617;23;20024;-65
2023/03/07 20:19:49;;;;;;;6.15;3.22;;;;;;;6.67;61.71;98693.72;12905913;23;20102;-67
2023/03/07 20:24:51;;;;;;;5.20;3.50;;;;;;;6.54;61.91;98689.09;12873018;23;20078;-67
2023/03/07 20:29:52;;;;;;;5.88;3.95;;;;;;;6.58;62.24;98689.56;12874976;23;20024;-67
2023/03/07 20:34:56;;;;;;;9.35;4.13;;;;;;;6.59;62.10;98685.84;12873758;23;20020;-66
2023/03/07 20:39:59;;;;;;;4.90;2.95;;;;;;;6.52;61.97;98691.16;12873016;23;20396;-67
2023/03/07 20:45:04;;;;;;;4.10;2.50;;;;;;;6.41;62.24;98707.66;12892800;23;20019;-67
2023/03/07 20:50:06;;;;;;;5.57;2.95;;;;;;;6.37;62.71;98709.06;12881386;23;20024;-68
2023/03/07 20:55:08;;;;;;;6.75;2.83;;;;;;;6.35;62.77;98706.56;12910090;23;20019;-65
2023/03/07 21:00:10;;;;;;;5.20;2.72;;;;;;;6.32;62.79;98714.97;12914925;23;20039;-67
2023/03/07 21:05:11;;;;;;;6.68;3.35;;;;;;;6.37;62.94;98717.88;12908694;23;20028;-68
2023/03/07 21:10:13;;;;;;;5.60;3.33;;;;;;;6.52;62.62;98729.34;12884841;22;20388;-67
2023/03/07 21:15:14;;;;;;;5.93;2.70;;;;;;;6.15;63.80;98736.53;12883221;23;20024;-68
2023/03/07 21:20:16;;;;;;;5.68;1.80;;;;;;;6.09;64.01;98760.47;12859842;23;20491;-68
2023/03/07 21:25:17;;;;;;;1.77;1.00;;;;;;;5.73;65.18;98755.88;12910840;23;20024;-68
2023/03/07 21:30:19;;;;;;;0.90;0.55;;;;;;;5.53;65.95;98756.41;12905110;23;20024;-71
2023/03/07 21:35:20;;;;;;;1.00;0.40;;;;;;;5.58;65.23;98755.84;12876040;23;20024;-70
2023/03/07 21:40:22;;;;;;;0.93;0.50;;;;;;;5.49;65.59;98762.28;12901933;23;20027;-68
2023/03/07 21:45:23;;;;;;;0.77;0.40;;;;;;;5.59;64.97;98752.19;12885709;23;20074;-71
2023/03/07 21:50:26;;;;;;;1.30;0.80;;;;;;;5.64;65.69;98768.44;12900238;23;20024;-65
2023/03/07 21:55:27;;;;;;;4.50;1.80;;;;;;;5.74;64.91;98774.31;12898330;23;20086;-64
2023/03/07 22:00:29;;;;;;;1.08;0.52;;;;;;;5.78;65.67;98780.13;12898375;23;20024;-63
2023/03/07 22:05:31;;;;;;;1.13;0.47;;;;;;;5.90;65.38;98785.81;12899161;23;20020;-62
2023/03/07 22:10:32;;;;;;;1.92;0.80;;;;;;;6.00;65.28;98785.56;12895690;22;20082;-62
2023/03/07 22:15:34;;;;;;;1.48;0.68;;;;;;;6.07;65.13;98791.84;12870568;23;20043;-61
2023/03/07 22:20:37;;;;;;;1.90;1.00;;;;;;;6.06;65.72;98790.16;12898543;23;20453;-61
2023/03/07 22:25:38;;;;;;;1.58;0.90;;;;;;;6.07;66.18;98795.31;12899663;23;20020;-60
2023/03/07 22:30:40;;;;;;;2.30;0.90;;;;;;;6.01;66.74;98798.72;12831395;23;1031814;-60
2023/03/07 22:35:41;;;;;;;1.52;0.70;;;;;;;5.91;66.94;98812.31;12902499;23;20039;-60
2023/03/07 22:40:42;;;;;;;1.20;0.65;;;;;;;5.85;67.34;98807.72;12902754;23;20027;-61
2023/03/07 22:45:49;;;;;;;3.25;0.82;;;;;;;5.88;66.73;98811.84;12903641;23;20020;-60
2023/03/07 22:50:51;;;;;;;1.23;0.70;;;;;;;5.86;67.07;98821.88;12904020;23;20024;-60
2023/03/07 22:55:52;;;;;;;1.67;0.70;;;;;;;5.75;67.31;98818.66;12904077;23;20448;-61
2023/03/07 23:00:54;;;;;;;1.45;0.60;;;;;;;5.79;67.73;98813.78;12874404;23;20089;-60
2023/03/07 23:05:58;;;;;;;1.23;0.82;;;;;;;5.88;67.33;98823.34;12877522;23;20510;-59
2023/03/07 23:11:02;;;;;;;1.98;0.75;;;;;;;5.92;67.71;98823.78;12902835;22;20020;-59
2023/03/07 23:16:15;;;;;;;2.83;1.70;;;;;;;5.93;67.77;98817.47;12901671;23;20333;-59
2023/03/07 23:21:22;;;;;;;2.28;1.00;;;;;;;5.99;67.38;98811.41;12904289;23;20063;-59
2023/03/07 23:26:26;;;;;;;5.53;1.50;;;;;;;5.99;67.60;98814.09;12902823;23;20020;-60
2023/03/07 23:31:31;;;;;;;2.35;0.90;;;;;;;5.92;68.28;98813.97;12901994;23;20035;-59
2023/03/07 23:36:33;;;;;;;1.90;0.70;;;;;;;5.67;68.08;98820.59;12901734;23;20054;-60
2023/03/07 23:41:35;;;;;;;1.83;0.65;;;;;;;5.48;69.18;98817.41;12902294;23;20526;-59